createdAt,value
2019-05-15T00:00:12.004Z,8.36
2019-05-15T00:00:52.631Z,8.36
2019-05-15T00:01:33.213Z,8.3
2019-05-15T00:02:13.805Z,8.34
2019-05-15T00:02:54.391Z,8.36
2019-05-15T00:03:34.993Z,8.34
2019-05-15T00:04:15.565Z,8.36
2019-05-15T00:04:58.366Z,8.3
2019-05-15T00:05:38.926Z,8.3
2019-05-15T00:06:19.030Z,8.33
2019-05-15T00:06:58.307Z,8.2
2019-05-15T00:07:39.333Z,8.24
2019-05-15T00:08:19.168Z,8.27
2019-05-15T00:08:59.766Z,8.27
2019-05-15T00:09:41.830Z,8.26
2019-05-15T00:10:20.958Z,8.2
2019-05-15T00:11:01.526Z,8.24
2019-05-15T00:11:42.145Z,8.3
2019-05-15T00:12:22.713Z,8.2
2019-05-15T00:13:03.306Z,8.27
2019-05-15T00:13:43.905Z,8.18
2019-05-15T00:14:24.498Z,8.23
2019-05-15T00:15:05.289Z,8.24
2019-05-15T00:15:47.986Z,8.24
2019-05-15T00:16:28.825Z,8.27
2019-05-15T00:17:08.206Z,8.24
2019-05-15T00:17:48.478Z,8.24
2019-05-15T00:18:28.298Z,8.2
2019-05-15T00:19:08.833Z,8.23
2019-05-15T00:19:49.357Z,8.26
2019-05-15T00:20:29.939Z,8.23
2019-05-15T00:21:10.541Z,8.19
2019-05-15T00:21:51.118Z,8.27
2019-05-15T00:22:31.707Z,8.27
2019-05-15T00:23:12.290Z,8.23
2019-05-15T00:23:52.884Z,8.19
2019-05-15T00:24:33.463Z,8.24
2019-05-15T00:25:14.038Z,8.16
2019-05-15T00:25:54.608Z,8.16
2019-05-15T00:26:35.203Z,8.2
2019-05-15T00:27:15.798Z,8.15
2019-05-15T00:27:58.229Z,8.24
2019-05-15T00:28:38.800Z,8.19
2019-05-15T00:29:19.641Z,8.18
2019-05-15T00:29:58.145Z,8.24
2019-05-15T00:30:39.026Z,8.26
2019-05-15T00:31:19.346Z,8.26
2019-05-15T00:31:59.909Z,8.2
2019-05-15T00:32:40.488Z,8.26
2019-05-15T00:33:21.082Z,8.2
2019-05-15T00:34:01.661Z,8.19
2019-05-15T00:34:42.263Z,8.18
2019-05-15T00:35:22.855Z,8.12
2019-05-15T00:36:03.443Z,8.12
2019-05-15T00:36:44.036Z,8.13
2019-05-15T00:37:24.631Z,8.15
2019-05-15T00:38:05.183Z,8.18
2019-05-15T00:38:47.970Z,8.12
2019-05-15T00:39:28.317Z,8.13
2019-05-15T00:40:08.724Z,8.15
2019-05-15T00:40:49.500Z,8.13
2019-05-15T00:41:28.060Z,8.13
2019-05-15T00:42:08.672Z,8.12
2019-05-15T00:42:49.227Z,8.18
2019-05-15T00:43:29.778Z,8.12
2019-05-15T00:44:10.333Z,8.06
2019-05-15T00:44:50.886Z,8.01
2019-05-15T00:45:31.435Z,8.03
2019-05-15T00:46:11.984Z,8.01
2019-05-15T00:46:52.558Z,8
2019-05-15T00:47:33.113Z,8.12
2019-05-15T00:48:13.676Z,7.97
2019-05-15T00:48:54.222Z,8.03
2019-05-15T00:49:34.779Z,7.95
2019-05-15T00:50:15.342Z,8
2019-05-15T00:50:55.900Z,7.9
2019-05-15T00:51:38.784Z,7.93
2019-05-15T00:52:18.015Z,8.08
2019-05-15T00:52:58.971Z,7.91
2019-05-15T00:53:38.908Z,7.97
2019-05-15T00:54:19.254Z,7.98
2019-05-15T00:54:59.405Z,7.91
2019-05-15T00:55:39.961Z,7.87
2019-05-15T00:56:20.540Z,8
2019-05-15T00:57:01.144Z,8
2019-05-15T00:57:41.699Z,7.93
2019-05-15T00:58:22.261Z,7.93
2019-05-15T00:59:02.836Z,7.85
2019-05-15T00:59:43.404Z,7.85
2019-05-15T01:00:23.962Z,7.98
2019-05-15T01:03:38.687Z,7.93
2019-05-15T01:04:18.796Z,7.91
2019-05-15T01:04:59.110Z,7.82
2019-05-15T01:05:39.654Z,7.77
2019-05-15T01:06:20.216Z,7.79
2019-05-15T01:07:00.831Z,7.88
2019-05-15T01:07:41.382Z,7.77
2019-05-15T01:08:21.923Z,7.87
2019-05-15T01:09:02.470Z,7.91
2019-05-15T01:09:43.032Z,7.83
2019-05-15T01:10:23.581Z,7.82
2019-05-15T01:11:04.149Z,7.91
2019-05-15T01:11:44.702Z,7.87
2019-05-15T01:12:25.270Z,7.9
2019-05-15T01:13:07.767Z,7.91
2019-05-15T01:13:48.128Z,7.87
2019-05-15T01:14:27.825Z,7.9
2019-05-15T01:15:09.162Z,7.91
2019-05-15T01:15:48.920Z,7.85
2019-05-15T01:16:28.678Z,7.9
2019-05-15T01:17:09.279Z,7.91
2019-05-15T01:17:49.820Z,7.85
2019-05-15T01:18:30.374Z,7.9
2019-05-15T01:19:10.952Z,7.97
2019-05-15T01:19:51.617Z,7.83
2019-05-15T01:20:32.185Z,7.88
2019-05-15T01:21:12.728Z,7.88
2019-05-15T01:21:53.292Z,7.75
2019-05-15T01:22:33.866Z,7.8
2019-05-15T01:23:14.453Z,7.87
2019-05-15T01:23:55.035Z,7.88
2019-05-15T01:24:35.591Z,7.83
2019-05-15T01:25:18.483Z,7.77
2019-05-15T01:25:58.697Z,7.87
2019-05-15T01:26:38.468Z,7.79
2019-05-15T01:27:18.386Z,7.82
2019-05-15T01:27:58.417Z,7.79
2019-05-15T01:28:38.958Z,7.85
2019-05-15T01:29:19.547Z,7.83
2019-05-15T01:30:00.091Z,7.79
2019-05-15T01:30:40.679Z,7.9
2019-05-15T01:31:21.241Z,7.79
2019-05-15T01:32:01.841Z,7.85
2019-05-15T01:32:42.436Z,7.75
2019-05-15T01:33:23.019Z,7.82
2019-05-15T01:34:03.596Z,7.83
2019-05-15T01:34:44.143Z,7.82
2019-05-15T01:35:24.701Z,7.72
2019-05-15T01:36:05.251Z,7.76
2019-05-15T01:36:45.797Z,7.77
2019-05-15T01:37:28.163Z,7.8
2019-05-15T01:38:08.071Z,7.76
2019-05-15T01:38:48.024Z,7.69
2019-05-15T01:39:29.039Z,7.75
2019-05-15T01:40:08.980Z,7.72
2019-05-15T01:40:49.174Z,7.73
2019-05-15T01:41:29.742Z,7.72
2019-05-15T01:42:10.318Z,7.72
2019-05-15T01:42:50.868Z,7.67
2019-05-15T01:43:31.443Z,7.72
2019-05-15T01:44:12.008Z,7.63
2019-05-15T01:44:52.580Z,7.63
2019-05-15T01:45:33.138Z,7.72
2019-05-15T01:46:13.693Z,7.69
2019-05-15T01:46:54.259Z,7.61
2019-05-15T01:47:34.855Z,7.61
2019-05-15T01:48:15.428Z,7.66
2019-05-15T01:48:58.398Z,7.66
2019-05-15T01:49:38.350Z,7.54
2019-05-15T01:50:18.497Z,7.61
2019-05-15T01:50:58.497Z,7.54
2019-05-15T01:51:38.560Z,7.51
2019-05-15T01:52:18.976Z,7.54
2019-05-15T01:52:59.439Z,7.53
2019-05-15T01:53:40.125Z,7.54
2019-05-15T01:54:20.618Z,7.53
2019-05-15T01:55:01.206Z,7.53
2019-05-15T01:55:41.748Z,7.54
2019-05-15T01:56:22.320Z,7.5
2019-05-15T01:57:02.880Z,7.54
2019-05-15T01:57:43.434Z,7.56
2019-05-15T01:58:24.011Z,7.54
2019-05-15T01:59:04.571Z,7.48
2019-05-15T01:59:54.693Z,7.5
2019-05-15T02:00:27.740Z,7.39
2019-05-15T02:01:08.048Z,7.54
2019-05-15T02:01:48.458Z,7.53
2019-05-15T02:02:27.989Z,7.51
2019-05-15T02:03:09.655Z,7.47
2019-05-15T02:03:49.232Z,7.57
2019-05-15T02:04:29.268Z,7.51
2019-05-15T02:05:09.818Z,7.57
2019-05-15T02:05:50.374Z,7.54
2019-05-15T02:06:30.943Z,7.53
2019-05-15T02:07:11.513Z,7.48
2019-05-15T02:07:52.068Z,7.5
2019-05-15T02:08:32.633Z,7.45
2019-05-15T02:09:13.188Z,7.47
2019-05-15T02:09:53.777Z,7.39
2019-05-15T02:10:34.341Z,7.45
2019-05-15T02:11:14.893Z,7.5
2019-05-15T02:11:57.975Z,7.43
2019-05-15T02:12:38.462Z,7.39
2019-05-15T02:13:18.545Z,7.4
2019-05-15T02:13:58.610Z,7.43
2019-05-15T02:14:39.146Z,7.45
2019-05-15T02:15:18.978Z,7.53
2019-05-15T02:15:58.998Z,7.51
2019-05-15T02:16:39.527Z,7.47
2019-05-15T02:17:20.049Z,7.48
2019-05-15T02:18:00.600Z,7.43
2019-05-15T02:18:41.151Z,7.39
2019-05-15T02:19:21.716Z,7.5
2019-05-15T02:20:02.267Z,7.43
2019-05-15T02:20:42.837Z,7.4
2019-05-15T02:21:23.378Z,7.43
2019-05-15T02:22:03.934Z,7.43
2019-05-15T02:22:44.502Z,7.48
2019-05-15T02:23:25.116Z,7.43
2019-05-15T02:24:07.790Z,7.42
2019-05-15T02:24:48.197Z,7.43
2019-05-15T02:25:27.999Z,7.53
2019-05-15T02:26:07.919Z,7.42
2019-05-15T02:26:48.267Z,7.54
2019-05-15T02:27:29.353Z,7.56
2019-05-15T02:28:09.589Z,7.53
2019-05-15T02:28:49.683Z,7.56
2019-05-15T02:29:30.230Z,7.56
2019-05-15T02:30:21.331Z,7.5
2019-05-15T02:30:51.371Z,7.48
2019-05-15T02:31:31.946Z,7.54
2019-05-15T02:32:12.504Z,7.51
2019-05-15T02:32:53.086Z,7.58
2019-05-15T02:33:33.663Z,7.5
2019-05-15T02:34:14.224Z,7.63
2019-05-15T02:34:54.773Z,7.67
2019-05-15T02:35:35.326Z,7.56
2019-05-15T02:36:15.894Z,7.56
2019-05-15T02:36:59.822Z,7.58
2019-05-15T02:37:40.323Z,7.61
2019-05-15T02:38:19.902Z,7.63
2019-05-15T02:38:59.608Z,7.63
2019-05-15T02:39:39.067Z,7.66
2019-05-15T02:40:19.354Z,7.61
2019-05-15T02:40:59.798Z,7.69
2019-05-15T02:41:40.353Z,7.69
2019-05-15T02:42:21.034Z,7.7
2019-05-15T02:43:01.613Z,7.72
2019-05-15T02:43:42.176Z,7.63
2019-05-15T02:44:22.736Z,7.72
2019-05-15T02:45:03.301Z,7.63
2019-05-15T02:45:43.866Z,7.66
2019-05-15T02:46:24.426Z,7.73
2019-05-15T02:47:04.998Z,7.77
2019-05-15T02:47:48.639Z,7.76
2019-05-15T02:48:28.924Z,7.73
2019-05-15T02:49:08.741Z,7.75
2019-05-15T02:49:48.568Z,7.76
2019-05-15T02:50:29.068Z,7.77
2019-05-15T02:51:09.626Z,7.8
2019-05-15T02:51:49.440Z,7.76
2019-05-15T02:52:29.771Z,7.76
2019-05-15T02:53:10.494Z,7.76
2019-05-15T02:53:50.607Z,7.79
2019-05-15T02:54:31.183Z,7.7
2019-05-15T02:55:11.744Z,7.73
2019-05-15T02:55:52.298Z,7.73
2019-05-15T02:56:32.880Z,7.7
2019-05-15T02:57:13.431Z,7.75
2019-05-15T02:57:53.986Z,7.75
2019-05-15T02:58:34.548Z,7.76
2019-05-15T02:59:15.142Z,7.76
2019-05-15T02:59:55.717Z,7.77
2019-05-15T03:00:46.361Z,7.75
2019-05-15T03:01:18.890Z,7.72
2019-05-15T03:01:59.374Z,7.75
2019-05-15T03:02:41.118Z,7.75
2019-05-15T03:03:20.549Z,7.69
2019-05-15T03:03:59.671Z,7.69
2019-05-15T03:04:40.138Z,7.61
2019-05-15T03:05:20.227Z,7.63
2019-05-15T03:06:00.812Z,7.53
2019-05-15T03:06:41.382Z,7.53
2019-05-15T03:07:21.955Z,7.6
2019-05-15T03:08:02.511Z,7.5
2019-05-15T03:08:43.067Z,7.48
2019-05-15T03:09:23.638Z,7.56
2019-05-15T03:10:04.180Z,7.56
2019-05-15T03:10:44.788Z,7.56
2019-05-15T03:11:25.310Z,7.48
2019-05-15T03:12:05.862Z,7.51
2019-05-15T03:12:49.303Z,7.53
2019-05-15T03:13:29.759Z,7.53
2019-05-15T03:14:09.231Z,7.48
2019-05-15T03:14:49.028Z,7.54
2019-05-15T03:15:29.154Z,7.6
2019-05-15T03:16:10.031Z,7.57
2019-05-15T03:16:50.002Z,7.6
2019-05-15T03:17:30.515Z,7.54
2019-05-15T03:18:11.089Z,7.63
2019-05-15T03:18:55.151Z,7.6
2019-05-15T03:19:32.220Z,7.69
2019-05-15T03:20:12.791Z,7.6
2019-05-15T03:20:53.346Z,7.63
2019-05-15T03:21:33.910Z,7.63
2019-05-15T03:22:14.474Z,7.67
2019-05-15T03:22:55.029Z,7.7
2019-05-15T03:23:35.616Z,7.72
2019-05-15T03:24:19.151Z,7.67
2019-05-15T03:24:59.198Z,7.7
2019-05-15T03:25:40.193Z,7.75
2019-05-15T03:26:19.688Z,7.75
2019-05-15T03:26:59.216Z,7.63
2019-05-15T03:27:39.668Z,7.72
2019-05-15T03:28:19.554Z,7.57
2019-05-15T03:29:00.126Z,7.63
2019-05-15T03:29:40.690Z,7.63
2019-05-15T03:30:22.162Z,7.56
2019-05-15T03:31:17.327Z,7.57
2019-05-15T03:31:58.329Z,7.57
2019-05-15T03:32:33.937Z,7.51
2019-05-15T03:33:09.821Z,7.57
2019-05-15T03:33:46.434Z,7.54
2019-05-15T03:34:30.449Z,7.51
2019-05-15T03:35:05.931Z,7.56
2019-05-15T03:35:45.769Z,7.54
2019-05-15T03:36:31.010Z,7.54
2019-05-15T03:37:11.600Z,7.56
2019-05-15T03:37:49.160Z,7.58
2019-05-15T03:38:29.520Z,7.45
2019-05-15T03:39:09.603Z,7.54
2019-05-15T03:39:51.647Z,7.51
2019-05-15T03:40:30.143Z,7.56
2019-05-15T03:41:10.776Z,7.48
2019-05-15T03:41:51.073Z,7.56
2019-05-15T03:42:31.625Z,7.53
2019-05-15T03:43:12.174Z,7.5
2019-05-15T03:43:52.738Z,7.54
2019-05-15T03:44:33.315Z,7.54
2019-05-15T03:45:13.870Z,7.57
2019-05-15T03:45:54.421Z,7.51
2019-05-15T03:46:35.020Z,7.51
2019-05-15T03:47:15.597Z,7.61
2019-05-15T03:47:59.051Z,7.53
2019-05-15T03:48:39.999Z,7.66
2019-05-15T03:49:19.863Z,7.67
2019-05-15T03:50:00.051Z,7.51
2019-05-15T03:50:40.052Z,7.53
2019-05-15T03:51:19.795Z,7.61
2019-05-15T03:51:59.587Z,7.66
2019-05-15T03:52:40.254Z,7.66
2019-05-15T03:53:20.785Z,7.72
2019-05-15T03:54:01.361Z,7.66
2019-05-15T03:54:41.922Z,7.7
2019-05-15T03:55:22.534Z,7.66
2019-05-15T03:56:03.138Z,7.63
2019-05-15T03:56:43.746Z,7.66
2019-05-15T03:57:24.307Z,7.61
2019-05-15T03:58:04.858Z,7.63
2019-05-15T03:58:45.410Z,7.66
2019-05-15T03:59:29.152Z,7.63
2019-05-15T04:00:09.326Z,7.69
2019-05-15T04:00:49.727Z,7.61
2019-05-15T04:01:37.015Z,7.67
2019-05-15T04:02:08.682Z,7.66
2019-05-15T04:02:48.993Z,7.72
2019-05-15T04:03:30.211Z,7.72
2019-05-15T04:04:10.079Z,7.7
2019-05-15T04:04:50.626Z,7.7
2019-05-15T04:05:31.206Z,7.73
2019-05-15T04:06:11.797Z,7.8
2019-05-15T04:06:52.357Z,7.73
2019-05-15T04:07:32.888Z,7.75
2019-05-15T04:08:13.468Z,7.75
2019-05-15T04:08:54.041Z,7.76
2019-05-15T04:09:34.607Z,7.76
2019-05-15T04:10:15.199Z,7.87
2019-05-15T04:10:55.744Z,7.8
2019-05-15T04:11:38.751Z,7.82
2019-05-15T04:12:19.589Z,7.82
2019-05-15T04:12:59.924Z,7.79
2019-05-15T04:13:39.514Z,7.83
2019-05-15T04:14:19.304Z,7.87
2019-05-15T04:14:59.682Z,7.83
2019-05-15T04:15:40.147Z,7.77
2019-05-15T04:16:20.288Z,7.87
2019-05-15T04:17:00.871Z,7.77
2019-05-15T04:17:41.449Z,7.77
2019-05-15T04:18:21.993Z,7.88
2019-05-15T04:19:02.574Z,7.91
2019-05-15T04:19:43.129Z,7.91
2019-05-15T04:20:23.698Z,7.87
2019-05-15T04:21:04.263Z,7.94
2019-05-15T04:21:45.333Z,7.9
2019-05-15T04:22:25.441Z,7.88
2019-05-15T04:23:05.990Z,7.87
2019-05-15T04:23:49.681Z,7.9
2019-05-15T04:24:29.839Z,7.94
2019-05-15T04:25:09.706Z,7.91
2019-05-15T04:25:49.338Z,7.8
2019-05-15T04:26:29.062Z,7.9
2019-05-15T04:27:10.448Z,7.88
2019-05-15T04:27:49.923Z,7.88
2019-05-15T04:28:30.469Z,7.93
2019-05-15T04:29:11.029Z,7.77
2019-05-15T04:29:51.646Z,7.94
2019-05-15T04:30:32.227Z,7.82
2019-05-15T04:31:12.788Z,7.95
2019-05-15T04:32:00.888Z,7.87
2019-05-15T04:32:33.903Z,7.83
2019-05-15T04:33:14.466Z,7.9
2019-05-15T04:33:55.033Z,7.95
2019-05-15T04:34:35.652Z,7.91
2019-05-15T04:35:19.553Z,7.91
2019-05-15T04:35:58.893Z,7.94
2019-05-15T04:36:39.082Z,7.94
2019-05-15T04:37:18.853Z,7.98
2019-05-15T04:37:59.655Z,8
2019-05-15T04:38:39.521Z,7.98
2019-05-15T04:39:19.656Z,7.97
2019-05-15T04:40:00.151Z,8.01
2019-05-15T04:40:40.706Z,7.91
2019-05-15T04:41:21.267Z,8
2019-05-15T04:42:01.847Z,8.08
2019-05-15T04:42:42.438Z,8
2019-05-15T04:43:23.025Z,7.9
2019-05-15T04:44:03.587Z,7.97
2019-05-15T04:44:44.138Z,7.97
2019-05-15T04:45:24.740Z,7.97
2019-05-15T04:46:05.283Z,8
2019-05-15T04:46:45.875Z,7.94
2019-05-15T04:47:29.917Z,7.94
2019-05-15T04:48:09.912Z,7.9
2019-05-15T04:48:50.093Z,8.03
2019-05-15T04:49:29.031Z,8.12
2019-05-15T04:50:09.176Z,8.05
2019-05-15T04:50:49.763Z,8.05
2019-05-15T04:51:30.542Z,8.06
2019-05-15T04:52:10.599Z,8.1
2019-05-15T04:52:50.981Z,8.06
2019-05-15T04:53:33.057Z,8.09
2019-05-15T04:54:12.107Z,8.1
2019-05-15T04:54:52.695Z,8.15
2019-05-15T04:55:33.258Z,8.13
2019-05-15T04:56:13.816Z,8.18
2019-05-15T04:56:54.391Z,8.13
2019-05-15T04:57:34.922Z,8.18
2019-05-15T04:58:20.279Z,8.15
2019-05-15T04:58:59.687Z,8.24
2019-05-15T04:59:38.936Z,8.23
2019-05-15T05:00:19.818Z,8.18
2019-05-15T05:00:59.815Z,8.2
2019-05-15T05:01:40.111Z,8.23
2019-05-15T05:02:26.288Z,8.24
2019-05-15T05:02:59.609Z,8.2
2019-05-15T05:03:40.156Z,8.24
2019-05-15T05:04:20.722Z,8.27
2019-05-15T05:05:01.377Z,8.34
2019-05-15T05:05:41.946Z,8.3
2019-05-15T05:06:22.643Z,8.36
2019-05-15T05:07:03.193Z,8.37
2019-05-15T05:07:43.774Z,8.38
2019-05-15T05:08:24.376Z,8.38
2019-05-15T05:09:04.938Z,8.34
2019-05-15T05:09:45.490Z,8.3
2019-05-15T05:10:28.860Z,8.41
2019-05-15T05:11:09.364Z,8.41
2019-05-15T05:11:48.880Z,8.44
2019-05-15T05:12:28.903Z,8.38
2019-05-15T05:13:48.929Z,8.42
2019-05-15T05:14:29.509Z,8.46
2019-05-15T05:15:10.064Z,8.48
2019-05-15T05:15:50.834Z,8.45
2019-05-15T05:16:31.173Z,8.44
2019-05-15T05:17:11.744Z,8.41
2019-05-15T05:17:52.319Z,8.44
2019-05-15T05:18:32.868Z,8.53
2019-05-15T05:19:13.716Z,8.38
2019-05-15T05:19:54.402Z,8.38
2019-05-15T05:20:34.930Z,8.51
2019-05-15T05:21:15.566Z,8.52
2019-05-15T05:21:58.200Z,8.48
2019-05-15T05:22:39.179Z,8.51
2019-05-15T05:23:19.124Z,8.38
2019-05-15T05:23:58.560Z,8.46
2019-05-15T05:24:38.604Z,8.46
2019-05-15T05:25:19.083Z,8.51
2019-05-15T05:25:59.655Z,8.45
2019-05-15T05:26:40.215Z,8.41
2019-05-15T05:27:20.805Z,8.48
2019-05-15T05:28:01.373Z,8.51
2019-05-15T05:28:41.937Z,8.51
2019-05-15T05:29:22.504Z,8.38
2019-05-15T05:30:03.064Z,8.52
2019-05-15T05:30:43.608Z,8.67
2019-05-15T05:31:24.182Z,8.88
2019-05-15T05:32:04.754Z,8.89
2019-05-15T05:32:45.399Z,9.22
2019-05-15T05:33:25.951Z,9.37
2019-05-15T05:34:08.216Z,9.61
2019-05-15T05:34:48.290Z,9.66
2019-05-15T05:35:27.963Z,9.73
2019-05-15T05:36:08.227Z,9.86
2019-05-15T05:36:48.804Z,9.95
2019-05-15T05:37:29.369Z,9.97
2019-05-15T05:38:09.917Z,10.07
2019-05-15T05:38:50.580Z,10.02
2019-05-15T05:39:31.202Z,10.09
2019-05-15T05:40:11.825Z,10.16
2019-05-15T05:40:52.413Z,10.25
2019-05-15T05:41:33.020Z,10.35
2019-05-15T05:42:13.578Z,10.3
2019-05-15T05:42:54.204Z,10.53
2019-05-15T05:43:34.755Z,10.61
2019-05-15T05:44:15.319Z,10.69
2019-05-15T05:44:58.125Z,10.72
2019-05-15T05:45:38.284Z,10.64
2019-05-15T05:46:18.365Z,10.63
2019-05-15T05:46:58.195Z,10.46
2019-05-15T05:47:38.494Z,10.4
2019-05-15T05:48:19.144Z,10.28
2019-05-15T05:48:59.292Z,10.19
2019-05-15T05:49:39.871Z,10.16
2019-05-15T05:50:20.421Z,10.05
2019-05-15T05:51:00.980Z,9.94
2019-05-15T05:51:41.614Z,9.86
2019-05-15T05:52:22.309Z,9.79
2019-05-15T05:53:02.884Z,9.76
2019-05-15T05:53:43.524Z,9.77
2019-05-15T05:54:24.094Z,9.59
2019-05-15T05:55:04.652Z,9.5
2019-05-15T05:55:45.225Z,9.47
2019-05-15T05:56:25.792Z,9.46
2019-05-15T05:57:06.348Z,9.44
2019-05-15T05:57:48.690Z,9.4
2019-05-15T05:58:29.666Z,9.37
2019-05-15T05:59:09.355Z,9.28
2019-05-15T05:59:49.038Z,9.23
2019-05-15T06:00:29.361Z,9.23
2019-05-15T06:01:09.937Z,9.19
2019-05-15T06:01:50.488Z,9.23
2019-05-15T06:02:43.616Z,9.16
2019-05-15T06:03:11.600Z,9.23
2019-05-15T06:03:52.167Z,9.19
2019-05-15T06:04:32.752Z,9.11
2019-05-15T06:05:13.346Z,9.11
2019-05-15T06:05:53.938Z,9.04
2019-05-15T06:06:34.520Z,8.99
2019-05-15T06:07:15.102Z,8.97
2019-05-15T06:07:55.669Z,8.99
2019-05-15T06:08:38.677Z,8.99
2019-05-15T06:09:18.205Z,9.13
2019-05-15T06:09:58.084Z,8.99
2019-05-15T06:10:38.677Z,9.02
2019-05-15T06:11:18.566Z,9.08
2019-05-15T06:11:59.073Z,8.92
2019-05-15T06:12:39.688Z,8.95
2019-05-15T06:13:20.263Z,8.91
2019-05-15T06:14:00.873Z,8.92
2019-05-15T06:16:13.770Z,8.95
2019-05-15T06:16:54.359Z,8.95
2019-05-15T06:17:34.955Z,8.88
2019-05-15T06:18:15.495Z,8.94
2019-05-15T06:18:58.455Z,8.92
2019-05-15T06:19:38.526Z,8.95
2019-05-15T06:20:18.521Z,8.94
2019-05-15T06:20:58.566Z,8.89
2019-05-15T06:21:52.469Z,8.95
2019-05-15T06:22:18.994Z,8.99
2019-05-15T06:22:59.564Z,8.94
2019-05-15T06:23:45.034Z,9.02
2019-05-15T06:24:20.778Z,8.89
2019-05-15T06:25:04.748Z,8.91
2019-05-15T06:25:41.905Z,9
2019-05-15T06:26:22.467Z,9
2019-05-15T06:27:03.032Z,9.1
2019-05-15T06:27:43.627Z,9.13
2019-05-15T06:28:24.177Z,9.08
2019-05-15T06:29:04.739Z,9.18
2019-05-15T06:29:45.353Z,9.14
2019-05-15T06:30:27.313Z,9.21
2019-05-15T06:31:08.637Z,9.23
2019-05-15T06:31:48.347Z,9.22
2019-05-15T06:32:28.875Z,9.23
2019-05-15T06:33:12.609Z,9.29
2019-05-15T06:33:49.131Z,9.31
2019-05-15T06:34:29.458Z,9.4
2019-05-15T06:35:10.013Z,9.41
2019-05-15T06:35:50.613Z,9.48
2019-05-15T06:36:31.182Z,9.51
2019-05-15T06:37:11.742Z,9.66
2019-05-15T06:37:52.312Z,9.72
2019-05-15T06:38:32.951Z,9.74
2019-05-15T06:39:13.510Z,9.73
2019-05-15T06:39:54.088Z,9.87
2019-05-15T06:40:34.697Z,9.92
2019-05-15T06:41:17.927Z,10.05
2019-05-15T06:41:55.928Z,10.23
2019-05-15T06:42:38.924Z,10.49
2019-05-15T06:43:19.079Z,10.61
2019-05-15T06:43:58.841Z,10.9
2019-05-15T06:44:38.762Z,11.02
2019-05-15T06:45:18.976Z,11.35
2019-05-15T06:45:59.424Z,11.48
2019-05-15T06:46:39.993Z,11.77
2019-05-15T06:47:20.551Z,11.84
2019-05-15T06:48:01.631Z,12.04
2019-05-15T06:48:41.728Z,12.35
2019-05-15T06:49:22.310Z,12.43
2019-05-15T06:50:02.902Z,12.61
2019-05-15T06:50:43.499Z,12.75
2019-05-15T06:51:24.067Z,12.85
2019-05-15T06:52:04.643Z,13.03
2019-05-15T06:52:45.235Z,13.01
2019-05-15T06:53:25.795Z,13.05
2019-05-15T06:54:08.544Z,13.12
2019-05-15T06:54:48.468Z,13.04
2019-05-15T06:55:28.868Z,13.13
2019-05-15T06:56:08.227Z,13.08
2019-05-15T06:56:49.332Z,13.11
2019-05-15T06:57:29.408Z,13.16
2019-05-15T06:58:09.993Z,13.18
2019-05-15T06:58:50.674Z,13.38
2019-05-15T06:59:31.200Z,13.37
2019-05-15T07:00:11.784Z,13.42
2019-05-15T07:00:52.372Z,13.42
2019-05-15T07:01:32.965Z,13.46
2019-05-15T07:02:13.540Z,13.59
2019-05-15T07:02:54.130Z,13.7
2019-05-15T07:03:34.709Z,13.7
2019-05-15T07:04:15.272Z,13.68
2019-05-15T07:04:58.162Z,13.6
2019-05-15T07:05:38.502Z,13.47
2019-05-15T07:06:18.092Z,13.47
2019-05-15T07:06:58.300Z,13.37
2019-05-15T07:07:38.952Z,13.33
2019-05-15T07:08:18.794Z,13.33
2019-05-15T07:08:59.407Z,13.25
2019-05-15T07:09:40.018Z,13.11
2019-05-15T07:10:20.623Z,13.04
2019-05-15T07:11:01.219Z,12.91
2019-05-15T07:11:41.871Z,12.86
2019-05-15T07:12:22.465Z,12.82
2019-05-15T07:13:03.125Z,12.82
2019-05-15T07:13:43.743Z,12.85
2019-05-15T07:14:24.346Z,12.68
2019-05-15T07:15:04.884Z,12.57
2019-05-15T07:15:45.458Z,12.64
2019-05-15T07:16:28.314Z,12.55
2019-05-15T07:17:09.034Z,12.47
2019-05-15T07:17:48.368Z,12.49
2019-05-15T07:18:28.415Z,12.42
2019-05-15T07:19:08.487Z,12.36
2019-05-15T07:19:48.992Z,12.35
2019-05-15T07:20:29.657Z,12.35
2019-05-15T07:23:43.629Z,12.13
2019-05-15T07:24:24.195Z,12.21
2019-05-15T07:25:04.765Z,12.12
2019-05-15T07:25:45.387Z,12.09
2019-05-15T07:26:25.964Z,12.12
2019-05-15T07:27:07.964Z,12.09
2019-05-15T07:27:47.827Z,11.94
2019-05-15T07:28:28.809Z,11.95
2019-05-15T07:29:08.272Z,11.91
2019-05-15T07:31:21.116Z,11.88
2019-05-15T07:32:01.682Z,11.88
2019-05-15T07:32:42.247Z,11.95
2019-05-15T07:33:35.643Z,12
2019-05-15T07:34:03.364Z,12
2019-05-15T07:34:43.943Z,12
2019-05-15T07:35:24.524Z,12.15
2019-05-15T07:36:05.063Z,12.09
2019-05-15T07:36:48.971Z,12.03
2019-05-15T07:37:26.185Z,12.12
2019-05-15T07:38:07.957Z,12.17
2019-05-15T07:38:48.473Z,12.17
2019-05-15T07:39:28.834Z,12.12
2019-05-15T07:40:08.544Z,12
2019-05-15T07:40:55.658Z,12.02
2019-05-15T07:41:29.609Z,12
2019-05-15T07:42:10.180Z,12
2019-05-15T07:42:50.729Z,11.9
2019-05-15T07:43:31.317Z,12
2019-05-15T07:44:11.938Z,12.02
2019-05-15T07:44:52.517Z,11.91
2019-05-15T07:45:33.136Z,11.91
2019-05-15T07:46:13.726Z,12
2019-05-15T07:46:54.354Z,11.99
2019-05-15T07:47:34.964Z,12
2019-05-15T07:48:15.583Z,12.02
2019-05-15T07:48:58.283Z,12
2019-05-15T07:49:38.785Z,12.12
2019-05-15T07:50:19.607Z,12.31
2019-05-15T07:50:59.382Z,12.46
2019-05-15T07:51:38.422Z,12.49
2019-05-15T07:52:19.464Z,12.67
2019-05-15T07:52:59.570Z,12.76
2019-05-15T07:53:40.148Z,12.79
2019-05-15T07:54:20.694Z,12.9
2019-05-15T07:55:01.327Z,13.03
2019-05-15T07:55:41.977Z,13.08
2019-05-15T07:56:22.585Z,13.13
2019-05-15T07:57:03.155Z,13.15
2019-05-15T07:57:43.772Z,13.27
2019-05-15T07:58:24.324Z,13.18
2019-05-15T07:59:04.954Z,13.12
2019-05-15T07:59:45.545Z,13.27
2019-05-15T08:00:28.780Z,13.13
2019-05-15T08:01:09.626Z,13.12
2019-05-15T08:01:48.797Z,13.04
2019-05-15T08:02:28.418Z,13.05
2019-05-15T08:03:10.249Z,13.03
2019-05-15T08:03:58.646Z,12.95
2019-05-15T08:04:32.852Z,12.83
2019-05-15T08:05:10.169Z,12.82
2019-05-15T08:05:58.184Z,12.9
2019-05-15T08:06:31.301Z,12.83
2019-05-15T08:07:11.868Z,12.82
2019-05-15T08:07:52.443Z,12.85
2019-05-15T08:08:33.000Z,12.82
2019-05-15T08:09:13.584Z,12.83
2019-05-15T08:09:54.162Z,12.8
2019-05-15T08:10:34.716Z,12.82
2019-05-15T08:11:20.595Z,12.83
2019-05-15T08:11:55.863Z,12.85
2019-05-15T08:12:38.885Z,12.94
2019-05-15T08:13:18.389Z,12.95
2019-05-15T08:13:58.242Z,13.04
2019-05-15T08:14:38.737Z,13.03
2019-05-15T08:15:18.771Z,13.04
2019-05-15T08:15:59.376Z,13.09
2019-05-15T08:16:39.931Z,13.16
2019-05-15T08:18:08.647Z,13.31
2019-05-15T08:18:41.714Z,13.42
2019-05-15T08:19:22.294Z,13.47
2019-05-15T08:20:02.877Z,13.52
2019-05-15T08:20:43.420Z,13.63
2019-05-15T08:21:24.106Z,13.77
2019-05-15T08:22:04.711Z,13.85
2019-05-15T08:22:45.932Z,13.92
2019-05-15T08:23:28.248Z,13.92
2019-05-15T08:24:08.457Z,13.9
2019-05-15T08:24:48.368Z,13.93
2019-05-15T08:25:34.149Z,13.89
2019-05-15T08:26:05.621Z,13.27
2019-05-15T08:26:08.725Z,13.96
2019-05-15T08:26:48.852Z,13.92
2019-05-15T08:27:29.831Z,13.9
2019-05-15T08:28:09.868Z,13.89
2019-05-15T08:28:50.423Z,13.87
2019-05-15T08:29:30.964Z,13.81
2019-05-15T08:30:11.534Z,13.77
2019-05-15T08:30:52.110Z,13.77
2019-05-15T08:31:32.702Z,13.75
2019-05-15T08:32:13.276Z,13.56
2019-05-15T08:32:53.840Z,13.59
2019-05-15T08:33:34.441Z,13.49
2019-05-15T08:34:16.340Z,13.39
2019-05-15T08:34:55.585Z,13.49
2019-05-15T08:35:38.238Z,13.35
2019-05-15T08:36:18.309Z,13.38
2019-05-15T08:36:58.950Z,13.37
2019-05-15T08:37:38.413Z,13.31
2019-05-15T08:38:18.649Z,13.33
2019-05-15T08:38:59.235Z,13.37
2019-05-15T08:39:39.646Z,13.31
2019-05-15T08:40:20.220Z,13.2
2019-05-15T08:41:00.790Z,13.2
2019-05-15T08:41:41.368Z,13.19
2019-05-15T08:42:21.916Z,13.35
2019-05-15T08:43:02.514Z,13.22
2019-05-15T08:43:43.139Z,13.33
2019-05-15T08:44:23.697Z,13.31
2019-05-15T08:45:04.259Z,13.33
2019-05-15T08:45:44.830Z,13.35
2019-05-15T08:46:27.845Z,13.38
2019-05-15T08:47:07.667Z,13.37
2019-05-15T08:47:48.950Z,13.38
2019-05-15T08:48:27.715Z,13.37
2019-05-15T08:49:09.126Z,13.42
2019-05-15T08:49:48.511Z,13.35
2019-05-15T08:50:28.879Z,13.35
2019-05-15T08:51:09.432Z,13.37
2019-05-15T08:51:49.989Z,13.39
2019-05-15T08:52:30.582Z,13.37
2019-05-15T08:53:11.148Z,13.37
2019-05-15T08:53:51.709Z,13.42
2019-05-15T08:54:32.279Z,13.33
2019-05-15T08:55:12.861Z,13.41
2019-05-15T08:55:53.438Z,13.39
2019-05-15T08:56:34.004Z,13.35
2019-05-15T08:57:14.580Z,13.39
2019-05-15T08:57:56.504Z,13.42
2019-05-15T08:58:37.877Z,13.41
2019-05-15T08:59:18.720Z,13.35
2019-05-15T08:59:58.281Z,13.49
2019-05-15T09:00:39.783Z,13.37
2019-05-15T09:01:18.266Z,13.44
2019-05-15T09:01:58.793Z,13.25
2019-05-15T09:02:39.372Z,13.42
2019-05-15T09:03:19.947Z,13.28
2019-05-15T09:04:00.535Z,13.41
2019-05-15T09:04:41.086Z,13.44
2019-05-15T09:05:21.645Z,13.33
2019-05-15T09:06:02.264Z,13.38
2019-05-15T09:06:42.851Z,13.5